CFE weather

Clermont-Ferrand Auvergne Airport
Clermont-Ferrand/Auvergne, Auvergne-Rhône-Alpes, France

Public forecast

Using degrees Celsius for public forecast. Weather courtesy of forecast.io.

Current aviation weather report (METAR) for Clermont-Ferrand Auvergne Airport

Retrieved 2019/12/16 04:30 UTC (6 minutes ago):

LFLC 160430Z AUTO 15007KT 9999 BKN042 BKN200 OVC230 10/06 Q1007 BECMG 16020G33KT

Aviation forecast (TAF) for Clermont-Ferrand Auvergne Airport

Retrieved 2019-12-16 03:22 UTC (1 hour ago):

TAF LFLC 160200Z 1603/1703 18012KT CAVOK BECMG 1605/1608 16020G33KT PROB40 TEMPO 1611/1620 18025G45KT